sensor_id;sensor_type;location;lat;lon;timestamp;pressure;altitude;pressure_sealevel;temperature;humidity
6599;BME280;3335;43.198;27.918;2023-03-25T00:02:24;149241.69;;;7.89;100.00
6599;BME280;3335;43.198;27.918;2023-03-25T00:04:52;149249.19;;;7.93;100.00
6599;BME280;3335;43.198;27.918;2023-03-25T00:07:20;149259.16;;;7.97;100.00
6599;BME280;3335;43.198;27.918;2023-03-25T00:09:48;149295.31;;;8.11;100.00
6599;BME280;3335;43.198;27.918;2023-03-25T00:12:15;149327.75;;;8.24;100.00
6599;BME280;3335;43.198;27.918;2023-03-25T00:14:42;149358.94;;;8.37;100.00
6599;BME280;3335;43.198;27.918;2023-03-25T00:17:20;149373.94;;;8.43;100.00
6599;BME280;3335;43.198;27.918;2023-03-25T00:19:47;149391.41;;;8.50;100.00
6599;BME280;3335;43.198;27.918;2023-03-25T00:22:15;149396.38;;;8.52;100.00
6599;BME280;3335;43.198;27.918;2023-03-25T00:24:42;149396.38;;;8.52;100.00
6599;BME280;3335;43.198;27.918;2023-03-25T00:27:09;149406.34;;;8.56;100.00
6599;BME280;3335;43.198;27.918;2023-03-25T00:29:36;149403.88;;;8.55;100.00
6599;BME280;3335;43.198;27.918;2023-03-25T00:32:03;149391.41;;;8.50;100.00
6599;BME280;3335;43.198;27.918;2023-03-25T00:34:32;149401.38;;;8.54;100.00
6599;BME280;3335;43.198;27.918;2023-03-25T00:36:59;149401.38;;;8.54;100.00
6599;BME280;3335;43.198;27.918;2023-03-25T00:39:27;149398.88;;;8.53;100.00
6599;BME280;3335;43.198;27.918;2023-03-25T00:41:53;149403.88;;;8.55;100.00
6599;BME280;3335;43.198;27.918;2023-03-25T00:44:21;149406.34;;;8.56;100.00
6599;BME280;3335;43.198;27.918;2023-03-25T00:46:48;149413.84;;;8.59;100.00
6599;BME280;3335;43.198;27.918;2023-03-25T00:49:15;149406.34;;;8.56;100.00
6599;BME280;3335;43.198;27.918;2023-03-25T00:51:44;149421.31;;;8.62;100.00
6599;BME280;3335;43.198;27.918;2023-03-25T00:54:11;149423.81;;;8.63;100.00
6599;BME280;3335;43.198;27.918;2023-03-25T00:56:38;149403.88;;;8.55;100.00
6599;BME280;3335;43.198;27.918;2023-03-25T00:59:04;149403.88;;;8.55;100.00
6599;BME280;3335;43.198;27.918;2023-03-25T01:01:31;149418.81;;;8.61;100.00
6599;BME280;3335;43.198;27.918;2023-03-25T01:04:03;149427.53;;;8.65;100.00
6599;BME280;3335;43.198;27.918;2023-03-25T01:06:37;149426.34;;;8.64;100.00
6599;BME280;3335;43.198;27.918;2023-03-25T01:09:08;149427.53;;;8.65;100.00
6599;BME280;3335;43.198;27.918;2023-03-25T01:11:35;149436.31;;;8.68;100.00
6599;BME280;3335;43.198;27.918;2023-03-25T01:14:04;149436.31;;;8.68;100.00
6599;BME280;3335;43.198;27.918;2023-03-25T01:16:32;149427.53;;;8.65;100.00
6599;BME280;3335;43.198;27.918;2023-03-25T01:18:59;149428.78;;;8.65;100.00
6599;BME280;3335;43.198;27.918;2023-03-25T01:21:26;149426.34;;;8.64;100.00
6599;BME280;3335;43.198;27.918;2023-03-25T01:23:53;149420.06;;;8.62;100.00
6599;BME280;3335;43.198;27.918;2023-03-25T01:26:21;149413.84;;;8.59;100.00
6599;BME280;3335;43.198;27.918;2023-03-25T01:28:48;149431.28;;;8.66;100.00
6599;BME280;3335;43.198;27.918;2023-03-25T01:31:15;149428.78;;;8.65;100.00
6599;BME280;3335;43.198;27.918;2023-03-25T01:33:42;149266.63;;;8.00;100.00
6599;BME280;3335;43.198;27.918;2023-03-25T01:36:10;149417.56;;;8.61;100.00
6599;BME280;3335;43.198;27.918;2023-03-25T01:38:37;149376.44;;;8.44;100.00
6599;BME280;3335;43.198;27.918;2023-03-25T01:41:05;149426.34;;;8.64;100.00
6599;BME280;3335;43.198;27.918;2023-03-25T01:43:34;149440.00;;;8.70;100.00
6599;BME280;3335;43.198;27.918;2023-03-25T01:46:01;149428.78;;;8.65;100.00
6599;BME280;3335;43.198;27.918;2023-03-25T01:48:30;149471.22;;;8.83;100.00
6599;BME280;3335;43.198;27.918;2023-03-25T01:51:04;149468.72;;;8.82;100.00
6599;BME280;3335;43.198;27.918;2023-03-25T01:53:33;149463.72;;;8.79;100.00
6599;BME280;3335;43.198;27.918;2023-03-25T01:56:01;149481.22;;;8.87;100.00
6599;BME280;3335;43.198;27.918;2023-03-25T01:58:30;149456.25;;;8.76;100.00
6599;BME280;3335;43.198;27.918;2023-03-25T02:00:59;149448.78;;;8.73;100.00
6599;BME280;3335;43.198;27.918;2023-03-25T02:03:27;149441.25;;;8.70;100.00
6599;BME280;3335;43.198;27.918;2023-03-25T02:05:59;149438.81;;;8.69;100.00
6599;BME280;3335;43.198;27.918;2023-03-25T02:08:28;149421.31;;;8.62;100.00
6599;BME280;3335;43.198;27.918;2023-03-25T02:10:57;149438.81;;;8.69;100.00
6599;BME280;3335;43.198;27.918;2023-03-25T02:13:24;149438.81;;;8.69;100.00
6599;BME280;3335;43.198;27.918;2023-03-25T02:16:06;149428.78;;;8.65;100.00
6599;BME280;3335;43.198;27.918;2023-03-25T02:18:44;149320.28;;;8.21;100.00
6599;BME280;3335;43.198;27.918;2023-03-25T02:21:36;149446.28;;;8.72;100.00
6599;BME280;3335;43.198;27.918;2023-03-25T02:24:36;149451.25;;;8.74;100.00
6599;BME280;3335;43.198;27.918;2023-03-25T02:27:17;149458.75;;;8.77;100.00
6599;BME280;3335;43.198;27.918;2023-03-25T02:30:18;149469.97;;;8.82;100.00
6599;BME280;3335;43.198;27.918;2023-03-25T02:33:11;149471.22;;;8.83;100.00
6599;BME280;3335;43.198;27.918;2023-03-25T02:35:58;149452.50;;;8.75;100.00
6599;BME280;3335;43.198;27.918;2023-03-25T02:38:36;149440.00;;;8.70;100.00
6599;BME280;3335;43.198;27.918;2023-03-25T02:41:11;149428.78;;;8.65;100.00
6599;BME280;3335;43.198;27.918;2023-03-25T02:43:43;149428.78;;;8.65;100.00
6599;BME280;3335;43.198;27.918;2023-03-25T02:46:15;149423.81;;;8.63;100.00
6599;BME280;3335;43.198;27.918;2023-03-25T02:48:49;149403.88;;;8.55;100.00
6599;BME280;3335;43.198;27.918;2023-03-25T02:51:21;149392.59;;;8.51;100.00
6599;BME280;3335;43.198;27.918;2023-03-25T02:53:52;149393.88;;;8.51;100.00
6599;BME280;3335;43.198;27.918;2023-03-25T02:56:22;149393.88;;;8.51;100.00
6599;BME280;3335;43.198;27.918;2023-03-25T02:58:51;149269.13;;;8.01;100.00
6599;BME280;3335;43.198;27.918;2023-03-25T03:01:21;149375.19;;;8.44;100.00
6599;BME280;3335;43.198;27.918;2023-03-25T03:03:51;149371.41;;;8.42;100.00
6599;BME280;3335;43.198;27.918;2023-03-25T03:06:19;149387.66;;;8.49;100.00
6599;BME280;3335;43.198;27.918;2023-03-25T03:09:00;149388.91;;;8.49;100.00
6599;BME280;3335;43.198;27.918;2023-03-25T03:11:37;149382.63;;;8.47;100.00
6599;BME280;3335;43.198;27.918;2023-03-25T03:14:35;149406.34;;;8.56;100.00
6599;BME280;3335;43.198;27.918;2023-03-25T03:17:08;149416.31;;;8.60;100.00
6599;BME280;3335;43.198;27.918;2023-03-25T03:19:41;149400.13;;;8.54;100.00
6599;BME280;3335;43.198;27.918;2023-03-25T03:22:29;149420.06;;;8.62;100.00
6599;BME280;3335;43.198;27.918;2023-03-25T03:25:05;149400.13;;;8.54;100.00
6599;BME280;3335;43.198;27.918;2023-03-25T03:27:42;149415.09;;;8.60;100.00
6599;BME280;3335;43.198;27.918;2023-03-25T03:30:16;149405.09;;;8.56;100.00
6599;BME280;3335;43.198;27.918;2023-03-25T03:32:48;149408.84;;;8.57;100.00
6599;BME280;3335;43.198;27.918;2023-03-25T03:35:22;149421.31;;;8.62;100.00
6599;BME280;3335;43.198;27.918;2023-03-25T03:37:55;149418.81;;;8.61;100.00
6599;BME280;3335;43.198;27.918;2023-03-25T03:40:26;149421.31;;;8.62;100.00
6599;BME280;3335;43.198;27.918;2023-03-25T03:42:56;149341.50;;;8.30;100.00
6599;BME280;3335;43.198;27.918;2023-03-25T03:45:26;149455.00;;;8.76;100.00
6599;BME280;3335;43.198;27.918;2023-03-25T03:47:57;149451.25;;;8.74;100.00
6599;BME280;3335;43.198;27.918;2023-03-25T03:50:30;149323.97;;;8.23;100.00
6599;BME280;3335;43.198;27.918;2023-03-25T03:53:03;149463.72;;;8.79;100.00
6599;BME280;3335;43.198;27.918;2023-03-25T03:55:38;149460.00;;;8.78;100.00
6599;BME280;3335;43.198;27.918;2023-03-25T03:58:08;149476.19;;;8.85;100.00
6599;BME280;3335;43.198;27.918;2023-03-25T04:00:42;149493.69;;;8.92;100.00
6599;BME280;3335;43.198;27.918;2023-03-25T04:03:13;149511.13;;;8.99;100.00
6599;BME280;3335;43.198;27.918;2023-03-25T04:05:43;149507.41;;;8.97;100.00
6599;BME280;3335;43.198;27.918;2023-03-25T04:08:20;149511.13;;;8.99;100.00
6599;BME280;3335;43.198;27.918;2023-03-25T04:10:54;149506.16;;;8.97;100.00
6599;BME280;3335;43.198;27.918;2023-03-25T04:13:27;149509.88;;;8.98;100.00
6599;BME280;3335;43.198;27.918;2023-03-25T04:15:57;149494.94;;;8.92;100.00
6599;BME280;3335;43.198;27.918;2023-03-25T04:18:25;149512.38;;;8.99;100.00
6599;BME280;3335;43.198;27.918;2023-03-25T04:20:53;149516.13;;;9.01;100.00
6599;BME280;3335;43.198;27.918;2023-03-25T04:23:20;149521.09;;;9.03;100.00
6599;BME280;3335;43.198;27.918;2023-03-25T04:25:47;149536.09;;;9.09;100.00
6599;BME280;3335;43.198;27.918;2023-03-25T04:28:19;149546.06;;;9.13;100.00
6599;BME280;3335;43.198;27.918;2023-03-25T04:30:46;149528.63;;;9.06;100.00
6599;BME280;3335;43.198;27.918;2023-03-25T04:33:14;149538.59;;;9.10;100.00
6599;BME280;3335;43.198;27.918;2023-03-25T04:35:42;149539.84;;;9.10;100.00
6599;BME280;3335;43.198;27.918;2023-03-25T04:38:09;149536.09;;;9.09;100.00
6599;BME280;3335;43.198;27.918;2023-03-25T04:40:36;149563.56;;;9.20;100.00
6599;BME280;3335;43.198;27.918;2023-03-25T04:43:05;149584.75;;;9.29;100.00
6599;BME280;3335;43.198;27.918;2023-03-25T04:45:33;149596.00;;;9.33;100.00
6599;BME280;3335;43.198;27.918;2023-03-25T04:48:01;149581.00;;;9.27;100.00
6599;BME280;3335;43.198;27.918;2023-03-25T04:50:31;149576.03;;;9.25;100.00
6599;BME280;3335;43.198;27.918;2023-03-25T04:52:58;149577.28;;;9.26;100.00
6599;BME280;3335;43.198;27.918;2023-03-25T04:55:26;149581.00;;;9.27;100.00
6599;BME280;3335;43.198;27.918;2023-03-25T04:57:54;149588.53;;;9.30;100.00
6599;BME280;3335;43.198;27.918;2023-03-25T05:00:22;149591.03;;;9.31;100.00
6599;BME280;3335;43.198;27.918;2023-03-25T05:02:52;149586.03;;;9.29;100.00
6599;BME280;3335;43.198;27.918;2023-03-25T05:05:20;149598.50;;;9.34;100.00
6599;BME280;3335;43.198;27.918;2023-03-25T05:07:49;149559.78;;;9.18;100.00
6599;BME280;3335;43.198;27.918;2023-03-25T05:10:17;149625.97;;;9.45;100.00
6599;BME280;3335;43.198;27.918;2023-03-25T05:12:44;149625.97;;;9.45;100.00
6599;BME280;3335;43.198;27.918;2023-03-25T05:15:12;149608.47;;;9.38;100.00
6599;BME280;3335;43.198;27.918;2023-03-25T05:17:39;149587.25;;;9.30;100.00
6599;BME280;3335;43.198;27.918;2023-03-25T05:20:08;149598.50;;;9.34;100.00
6599;BME280;3335;43.198;27.918;2023-03-25T05:22:35;149492.44;;;8.91;100.00
6599;BME280;3335;43.198;27.918;2023-03-25T05:25:03;149614.75;;;9.41;100.00
6599;BME280;3335;43.198;27.918;2023-03-25T05:27:31;149603.47;;;9.36;100.00
6599;BME280;3335;43.198;27.918;2023-03-25T05:29:58;149583.50;;;9.28;100.00
6599;BME280;3335;43.198;27.918;2023-03-25T05:32:25;149598.50;;;9.34;100.00
6599;BME280;3335;43.198;27.918;2023-03-25T05:34:54;149583.50;;;9.28;100.00
6599;BME280;3335;43.198;27.918;2023-03-25T05:37:22;149591.03;;;9.31;100.00
6599;BME280;3335;43.198;27.918;2023-03-25T05:39:50;149612.22;;;9.40;100.00
6599;BME280;3335;43.198;27.918;2023-03-25T05:42:17;149615.94;;;9.41;100.00
6599;BME280;3335;43.198;27.918;2023-03-25T05:44:47;149615.94;;;9.41;100.00
6599;BME280;3335;43.198;27.918;2023-03-25T05:47:17;149598.50;;;9.34;100.00
6599;BME280;3335;43.198;27.918;2023-03-25T05:49:46;149615.94;;;9.41;100.00
6599;BME280;3335;43.198;27.918;2023-03-25T05:52:13;149645.94;;;9.53;100.00
6599;BME280;3335;43.198;27.918;2023-03-25T05:54:42;149645.94;;;9.53;100.00
6599;BME280;3335;43.198;27.918;2023-03-25T05:57:10;149568.53;;;9.22;100.00
6599;BME280;3335;43.198;27.918;2023-03-25T05:59:37;149664.63;;;9.61;100.00
6599;BME280;3335;43.198;27.918;2023-03-25T06:02:05;149668.38;;;9.62;100.00
6599;BME280;3335;43.198;27.918;2023-03-25T06:04:33;149693.38;;;9.73;100.00
6599;BME280;3335;43.198;27.918;2023-03-25T06:07:05;149688.34;;;9.71;100.00
6599;BME280;3335;43.198;27.918;2023-03-25T06:09:34;149693.38;;;9.73;100.00
6599;BME280;3335;43.198;27.918;2023-03-25T06:12:02;149692.13;;;9.72;100.00
6599;BME280;3335;43.198;27.918;2023-03-25T06:14:29;149692.13;;;9.72;100.00
6599;BME280;3335;43.198;27.918;2023-03-25T06:16:56;149700.84;;;9.76;100.00
6599;BME280;3335;43.198;27.918;2023-03-25T06:19:23;149719.59;;;9.83;100.00
6599;BME280;3335;43.198;27.918;2023-03-25T06:21:51;149693.38;;;9.73;100.00
6599;BME280;3335;43.198;27.918;2023-03-25T06:24:19;149705.84;;;9.78;100.00
6599;BME280;3335;43.198;27.918;2023-03-25T06:26:46;149698.34;;;9.75;100.00
6599;BME280;3335;43.198;27.918;2023-03-25T06:29:15;149743.31;;;9.93;100.00
6599;BME280;3335;43.198;27.918;2023-03-25T06:31:42;149790.78;;;10.12;100.00
6599;BME280;3335;43.198;27.918;2023-03-25T06:34:08;149813.28;;;10.21;100.00
6599;BME280;3335;43.198;27.918;2023-03-25T06:36:35;149855.75;;;10.38;100.00
6599;BME280;3335;43.198;27.918;2023-03-25T06:39:02;149883.25;;;10.49;100.00
6599;BME280;3335;43.198;27.918;2023-03-25T06:41:31;149913.19;;;10.62;100.00
6599;BME280;3335;43.198;27.918;2023-03-25T06:44:00;149951.94;;;10.77;100.00
6599;BME280;3335;43.198;27.918;2023-03-25T06:46:29;149948.19;;;10.76;100.00
6599;BME280;3335;43.198;27.918;2023-03-25T06:48:56;149974.41;;;10.86;100.00
6599;BME280;3335;43.198;27.918;2023-03-25T06:51:23;149842.00;;;10.33;100.00
6599;BME280;3335;43.198;27.918;2023-03-25T06:53:49;149964.44;;;10.82;100.00
6599;BME280;3335;43.198;27.918;2023-03-25T06:56:16;149991.88;;;10.93;100.00
6599;BME280;3335;43.198;27.918;2023-03-25T06:58:43;150000.69;;;10.97;100.00
6599;BME280;3335;43.198;27.918;2023-03-25T07:01:10;150040.63;;;11.13;100.00
6599;BME280;3335;43.198;27.918;2023-03-25T07:03:38;150025.63;;;11.07;100.00
6599;BME280;3335;43.198;27.918;2023-03-25T07:06:06;150030.66;;;11.09;100.00
6599;BME280;3335;43.198;27.918;2023-03-25T07:08:33;150055.66;;;11.19;100.00
6599;BME280;3335;43.198;27.918;2023-03-25T07:11:01;150075.63;;;11.27;100.00
6599;BME280;3335;43.198;27.918;2023-03-25T07:13:28;150090.63;;;11.33;100.00
6599;BME280;3335;43.198;27.918;2023-03-25T07:15:55;150101.88;;;11.38;100.00
6599;BME280;3335;43.198;27.918;2023-03-25T07:18:22;150093.16;;;11.34;100.00
6599;BME280;3335;43.198;27.918;2023-03-25T07:20:51;150088.13;;;11.32;100.00
6599;BME280;3335;43.198;27.918;2023-03-25T07:23:18;150068.16;;;11.24;100.00
6599;BME280;3335;43.198;27.918;2023-03-25T07:25:45;150078.13;;;11.28;100.00
6599;BME280;3335;43.198;27.918;2023-03-25T07:28:12;150095.66;;;11.35;100.00
6599;BME280;3335;43.198;27.918;2023-03-25T07:30:39;150095.66;;;11.35;100.00
6599;BME280;3335;43.198;27.918;2023-03-25T07:33:06;150130.66;;;11.50;100.00
6599;BME280;3335;43.198;27.918;2023-03-25T07:35:33;150050.63;;;11.17;100.00
6599;BME280;3335;43.198;27.918;2023-03-25T07:38:01;150088.13;;;11.32;100.00
6599;BME280;3335;43.198;27.918;2023-03-25T07:40:28;150033.16;;;11.10;100.00
6599;BME280;3335;43.198;27.918;2023-03-25T07:42:55;150023.16;;;11.06;100.00
6599;BME280;3335;43.198;27.918;2023-03-25T07:45:22;149986.91;;;10.91;100.00
6599;BME280;3335;43.198;27.918;2023-03-25T07:47:49;149990.63;;;10.93;100.00
6599;BME280;3335;43.198;27.918;2023-03-25T07:50:18;149943.22;;;10.74;100.00
6599;BME280;3335;43.198;27.918;2023-03-25T07:52:45;149899.44;;;10.56;100.00
6599;BME280;3335;43.198;27.918;2023-03-25T07:55:14;149893.22;;;10.53;100.00
6599;BME280;3335;43.198;27.918;2023-03-25T07:57:42;149885.69;;;10.50;100.00
6599;BME280;3335;43.198;27.918;2023-03-25T08:00:10;149875.72;;;10.46;100.00
6599;BME280;3335;43.198;27.918;2023-03-25T08:02:37;149883.25;;;10.49;100.00
6599;BME280;3335;43.198;27.918;2023-03-25T08:05:05;149893.22;;;10.53;100.00
6599;BME280;3335;43.198;27.918;2023-03-25T08:07:32;149928.19;;;10.68;100.00
6599;BME280;3335;43.198;27.918;2023-03-25T08:09:59;150000.69;;;10.97;100.00
6599;BME280;3335;43.198;27.918;2023-03-25T08:12:27;150008.16;;;11.00;100.00
6599;BME280;3335;43.198;27.918;2023-03-25T08:14:55;150044.41;;;11.15;100.00
6599;BME280;3335;43.198;27.918;2023-03-25T08:17:22;150040.63;;;11.13;100.00
6599;BME280;3335;43.198;27.918;2023-03-25T08:19:49;150075.63;;;11.27;100.00
6599;BME280;3335;43.198;27.918;2023-03-25T08:22:15;150070.66;;;11.25;100.00
6599;BME280;3335;43.198;27.918;2023-03-25T08:24:42;150078.13;;;11.28;100.00
6599;BME280;3335;43.198;27.918;2023-03-25T08:27:09;150046.91;;;11.16;100.00
6599;BME280;3335;43.198;27.918;2023-03-25T08:29:38;150056.91;;;11.20;100.00
6599;BME280;3335;43.198;27.918;2023-03-25T08:32:05;150000.69;;;10.97;100.00
6599;BME280;3335;43.198;27.918;2023-03-25T08:34:32;149984.41;;;10.90;100.00
6599;BME280;3335;43.198;27.918;2023-03-25T08:37:04;149990.63;;;10.93;100.00
6599;BME280;3335;43.198;27.918;2023-03-25T08:39:32;150048.16;;;11.16;100.00
6599;BME280;3335;43.198;27.918;2023-03-25T08:42:04;150026.88;;;11.08;100.00
6599;BME280;3335;43.198;27.918;2023-03-25T08:44:31;150083.16;;;11.30;100.00
6599;BME280;3335;43.198;27.918;2023-03-25T08:46:59;150108.13;;;11.40;100.00
6599;BME280;3335;43.198;27.918;2023-03-25T08:49:27;150033.16;;;11.10;100.00
6599;BME280;3335;43.198;27.918;2023-03-25T08:51:54;149981.91;;;10.89;100.00
6599;BME280;3335;43.198;27.918;2023-03-25T08:54:22;150033.16;;;11.10;100.00
6599;BME280;3335;43.198;27.918;2023-03-25T08:56:49;150079.38;;;11.29;100.00
6599;BME280;3335;43.198;27.918;2023-03-25T08:59:16;150048.16;;;11.16;100.00
6599;BME280;3335;43.198;27.918;2023-03-25T09:01:43;150063.13;;;11.22;100.00
6599;BME280;3335;43.198;27.918;2023-03-25T09:04:12;149840.75;;;10.32;100.00
6599;BME280;3335;43.198;27.918;2023-03-25T09:06:39;150073.13;;;11.26;100.00
6599;BME280;3335;43.198;27.918;2023-03-25T09:09:06;150103.13;;;11.38;100.00
6599;BME280;3335;43.198;27.918;2023-03-25T09:11:35;149995.66;;;10.95;100.00
6599;BME280;3335;43.198;27.918;2023-03-25T09:14:02;149959.41;;;10.80;100.00
6599;BME280;3335;43.198;27.918;2023-03-25T09:16:30;149983.16;;;10.90;100.00
6599;BME280;3335;43.198;27.918;2023-03-25T09:18:57;149974.41;;;10.86;100.00
6599;BME280;3335;43.198;27.918;2023-03-25T09:21:25;149865.72;;;10.42;100.00
6599;BME280;3335;43.198;27.918;2023-03-25T09:23:52;149976.94;;;10.87;100.00
6599;BME280;3335;43.198;27.918;2023-03-25T09:26:19;149890.72;;;10.52;100.00
6599;BME280;3335;43.198;27.918;2023-03-25T09:28:46;150013.16;;;11.02;100.00
6599;BME280;3335;43.198;27.918;2023-03-25T09:31:13;149975.69;;;10.87;100.00
6599;BME280;3335;43.198;27.918;2023-03-25T09:33:40;149948.19;;;10.76;100.00
6599;BME280;3335;43.198;27.918;2023-03-25T09:36:07;149988.19;;;10.92;100.00
6599;BME280;3335;43.198;27.918;2023-03-25T09:38:37;149943.22;;;10.74;100.00
6599;BME280;3335;43.198;27.918;2023-03-25T09:41:33;149981.91;;;10.89;100.00
6599;BME280;3335;43.198;27.918;2023-03-25T09:44:12;149966.91;;;10.83;100.00
6599;BME280;3335;43.198;27.918;2023-03-25T09:46:41;150005.66;;;10.99;100.00
6599;BME280;3335;43.198;27.918;2023-03-25T09:49:13;150066.88;;;11.24;100.00
6599;BME280;3335;43.198;27.918;2023-03-25T09:51:42;150083.16;;;11.30;100.00
6599;BME280;3335;43.198;27.918;2023-03-25T09:54:17;150018.16;;;11.04;100.00
6599;BME280;3335;43.198;27.918;2023-03-25T09:56:47;150000.69;;;10.97;100.00
6599;BME280;3335;43.198;27.918;2023-03-25T09:59:18;150030.66;;;11.09;100.00
6599;BME280;3335;43.198;27.918;2023-03-25T10:01:50;150045.66;;;11.15;100.00
6599;BME280;3335;43.198;27.918;2023-03-25T10:04:39;149938.19;;;10.72;100.00
6599;BME280;3335;43.198;27.918;2023-03-25T10:07:19;149683.38;;;9.69;100.00
6599;BME280;3335;43.198;27.918;2023-03-25T10:09:57;149866.97;;;10.43;100.00
6599;BME280;3335;43.198;27.918;2023-03-25T10:12:34;149851.97;;;10.37;100.00
6599;BME280;3335;43.198;27.918;2023-03-25T10:15:16;149840.75;;;10.32;100.00
6599;BME280;3335;43.198;27.918;2023-03-25T10:17:55;149834.53;;;10.30;100.00
6599;BME280;3335;43.198;27.918;2023-03-25T10:20:35;149844.50;;;10.34;100.00
6599;BME280;3335;43.198;27.918;2023-03-25T10:23:09;149840.75;;;10.32;100.00
6599;BME280;3335;43.198;27.918;2023-03-25T10:25:43;149794.47;;;10.14;100.00
6599;BME280;3335;43.198;27.918;2023-03-25T10:28:17;149845.75;;;10.34;100.00
6599;BME280;3335;43.198;27.918;2023-03-25T10:30:48;149868.22;;;10.43;100.00
6599;BME280;3335;43.198;27.918;2023-03-25T10:33:25;149908.19;;;10.60;100.00
6599;BME280;3335;43.198;27.918;2023-03-25T10:35:55;149890.72;;;10.52;100.00
6599;BME280;3335;43.198;27.918;2023-03-25T10:38:24;149863.22;;;10.41;100.00
6599;BME280;3335;43.198;27.918;2023-03-25T10:41:02;149872.00;;;10.45;100.00
6599;BME280;3335;43.198;27.918;2023-03-25T10:43:33;149886.94;;;10.51;100.00
6599;BME280;3335;43.198;27.918;2023-03-25T10:46:06;149765.78;;;10.02;100.00
6599;BME280;3335;43.198;27.918;2023-03-25T10:48:35;149859.50;;;10.40;100.00
6599;BME280;3335;43.198;27.918;2023-03-25T10:51:06;149855.75;;;10.38;100.00
6599;BME280;3335;43.198;27.918;2023-03-25T10:53:34;149855.75;;;10.38;100.00
6599;BME280;3335;43.198;27.918;2023-03-25T10:56:04;149833.25;;;10.29;100.00
6599;BME280;3335;43.198;27.918;2023-03-25T10:58:33;149832.00;;;10.29;100.00
6599;BME280;3335;43.198;27.918;2023-03-25T11:01:09;149848.25;;;10.35;100.00
6599;BME280;3335;43.198;27.918;2023-03-25T11:03:38;149818.25;;;10.23;100.00
6599;BME280;3335;43.198;27.918;2023-03-25T11:06:08;149863.22;;;10.41;100.00
6599;BME280;3335;43.198;27.918;2023-03-25T11:08:55;149899.44;;;10.56;100.00
6599;BME280;3335;43.198;27.918;2023-03-25T11:11:31;149883.25;;;10.49;100.00
6599;BME280;3335;43.198;27.918;2023-03-25T11:13:58;149855.75;;;10.38;100.00
6599;BME280;3335;43.198;27.918;2023-03-25T11:16:25;149809.53;;;10.20;100.00
6599;BME280;3335;43.198;27.918;2023-03-25T11:18:59;149899.44;;;10.56;100.00
6599;BME280;3335;43.198;27.918;2023-03-25T11:21:30;149913.19;;;10.62;100.00
6599;BME280;3335;43.198;27.918;2023-03-25T11:23:59;149909.44;;;10.60;100.00
6599;BME280;3335;43.198;27.918;2023-03-25T11:26:27;149923.19;;;10.66;100.00
6599;BME280;3335;43.198;27.918;2023-03-25T11:29:04;149896.94;;;10.55;100.00
6599;BME280;3335;43.198;27.918;2023-03-25T11:31:33;149911.94;;;10.61;100.00
6599;BME280;3335;43.198;27.918;2023-03-25T11:34:07;149915.69;;;10.63;100.00
6599;BME280;3335;43.198;27.918;2023-03-25T11:36:47;149926.94;;;10.67;100.00
6599;BME280;3335;43.198;27.918;2023-03-25T11:39:17;149890.72;;;10.52;100.00
6599;BME280;3335;43.198;27.918;2023-03-25T11:41:44;149905.72;;;10.59;100.00
6599;BME280;3335;43.198;27.918;2023-03-25T11:44:21;149860.75;;;10.40;100.00
6599;BME280;3335;43.198;27.918;2023-03-25T11:46:50;149928.19;;;10.68;100.00
6599;BME280;3335;43.198;27.918;2023-03-25T11:49:19;150006.91;;;11.00;100.00
6599;BME280;3335;43.198;27.918;2023-03-25T11:51:48;149980.66;;;10.89;100.00
6599;BME280;3335;43.198;27.918;2023-03-25T11:54:17;149925.69;;;10.67;100.00
6599;BME280;3335;43.198;27.918;2023-03-25T11:56:48;149953.19;;;10.78;100.00
6599;BME280;3335;43.198;27.918;2023-03-25T11:59:22;149940.69;;;10.73;100.00
6599;BME280;3335;43.198;27.918;2023-03-25T12:01:51;149865.72;;;10.42;100.00
6599;BME280;3335;43.198;27.918;2023-03-25T12:04:25;149921.94;;;10.65;100.00
6599;BME280;3335;43.198;27.918;2023-03-25T12:06:55;149883.25;;;10.49;100.00
6599;BME280;3335;43.198;27.918;2023-03-25T12:09:24;149903.22;;;10.58;100.00
6599;BME280;3335;43.198;27.918;2023-03-25T12:11:59;149906.97;;;10.59;100.00
6599;BME280;3335;43.198;27.918;2023-03-25T12:14:37;149915.69;;;10.63;100.00
6599;BME280;3335;43.198;27.918;2023-03-25T12:17:19;149931.91;;;10.69;100.00
6599;BME280;3335;43.198;27.918;2023-03-25T12:19:56;149886.94;;;10.51;100.00
6599;BME280;3335;43.198;27.918;2023-03-25T12:22:37;149865.72;;;10.42;100.00
6599;BME280;3335;43.198;27.918;2023-03-25T12:25:17;149894.47;;;10.54;100.00
6599;BME280;3335;43.198;27.918;2023-03-25T12:27:55;149834.53;;;10.30;100.00
6599;BME280;3335;43.198;27.918;2023-03-25T12:30:36;149817.00;;;10.23;100.00
6599;BME280;3335;43.198;27.918;2023-03-25T12:33:12;149823.28;;;10.25;100.00
6599;BME280;3335;43.198;27.918;2023-03-25T12:35:44;149840.75;;;10.32;100.00
6599;BME280;3335;43.198;27.918;2023-03-25T12:38:28;149838.22;;;10.31;100.00
6599;BME280;3335;43.198;27.918;2023-03-25T12:41:19;149869.50;;;10.44;100.00
6599;BME280;3335;43.198;27.918;2023-03-25T12:44:00;149648.44;;;9.54;100.00
6599;BME280;3335;43.198;27.918;2023-03-25T12:46:45;149788.25;;;10.11;100.00
6599;BME280;3335;43.198;27.918;2023-03-25T12:49:27;149798.25;;;10.15;100.00
6599;BME280;3335;43.198;27.918;2023-03-25T12:52:05;149800.81;;;10.16;100.00
6599;BME280;3335;43.198;27.918;2023-03-25T12:54:46;149789.53;;;10.12;100.00
6599;BME280;3335;43.198;27.918;2023-03-25T12:57:26;149824.53;;;10.26;100.00
6599;BME280;3335;43.198;27.918;2023-03-25T13:00:04;149851.97;;;10.37;100.00
6599;BME280;3335;43.198;27.918;2023-03-25T13:02:55;149808.28;;;10.19;100.00
6599;BME280;3335;43.198;27.918;2023-03-25T13:05:30;149827.00;;;10.27;100.00
6599;BME280;3335;43.198;27.918;2023-03-25T13:08:03;149815.75;;;10.22;100.00
6599;BME280;3335;43.198;27.918;2023-03-25T13:10:34;149810.78;;;10.20;100.00
6599;BME280;3335;43.198;27.918;2023-03-25T13:13:07;149798.25;;;10.15;100.00
6599;BME280;3335;43.198;27.918;2023-03-25T13:15:39;149860.75;;;10.40;100.00